Time;durP1;ratioP1;P1;durP2;ratioP2;P2;SDS_P1;SDS_P2;PMS_P1;PMS_P2;Temp;Humidity;BMP_temperature;BMP_pressure;BME280_temperature;BME280_humidity;BME280_pressure;Samples;Min_cycle;Max_cycle;Signal;HPM_P1;HPM_P2
2021/03/30 00:00:34;;;;;;;10.27;6.47;;;;;;;11.76;43.99;99423.38;8331013;28;20232;-68
2021/03/30 00:04:35;;;;;;;17.03;7.07;;;;;;;11.73;43.98;99426.94;8332425;28;20208;-69
2021/03/30 00:08:37;;;;;;;11.23;6.63;;;;;;;11.71;44.13;99420.94;8332001;28;20212;-69
2021/03/30 00:12:41;;;;;;;8.80;5.90;;;;;;;11.71;44.05;99415.75;8331856;28;20220;-68
2021/03/30 00:16:43;;;;;;;9.57;6.27;;;;;;;11.63;44.17;99409.91;8332098;28;20231;-68
2021/03/30 00:20:46;;;;;;;14.60;7.43;;;;;;;11.56;44.17;99413.53;8332085;28;20287;-68
2021/03/30 00:24:48;;;;;;;16.33;8.82;;;;;;;11.73;43.62;99413.09;8330944;28;20419;-68
2021/03/30 00:28:51;;;;;;;17.37;9.40;;;;;;;11.45;44.43;99408.59;8331058;28;20228;-68
2021/03/30 00:32:53;;;;;;;17.10;8.87;;;;;;;11.25;44.66;99406.53;8331716;28;20221;-68
2021/03/30 00:36:55;;;;;;;11.33;6.63;;;;;;;11.27;44.80;99406.47;8330640;28;20513;-68
2021/03/30 00:40:58;;;;;;;10.57;6.20;;;;;;;11.38;44.89;99403.59;8330526;28;20223;-68
2021/03/30 00:45:02;;;;;;;9.90;6.00;;;;;;;11.30;44.56;99411.59;8331033;28;20205;-69
2021/03/30 00:49:04;;;;;;;11.07;6.10;;;;;;;11.24;44.46;99399.63;8330305;28;20201;-69
2021/03/30 00:53:06;;;;;;;10.70;6.03;;;;;;;11.12;44.74;99405.09;8330704;28;20262;-69
2021/03/30 00:57:08;;;;;;;10.67;5.87;;;;;;;11.02;44.69;99401.84;8330504;28;20200;-69
2021/03/30 01:01:11;;;;;;;12.90;5.63;;;;;;;11.04;44.87;99405.28;8318920;28;20189;-69
2021/03/30 01:05:14;;;;;;;10.30;6.10;;;;;;;11.04;45.21;99410.47;8297410;28;20205;-69
2021/03/30 01:09:22;;;;;;;9.93;5.83;;;;;;;10.93;45.20;99412.47;8316125;28;20208;-69
2021/03/30 01:13:44;;;;;;;9.63;5.90;;;;;;;10.90;45.01;99404.75;8310897;28;20213;-68
2021/03/30 01:17:56;;;;;;;12.37;6.50;;;;;;;10.90;45.14;99404.75;8296667;28;20581;-68
2021/03/30 01:22:23;;;;;;;12.03;6.80;;;;;;;10.86;45.30;99398.78;8297319;28;20216;-69
2021/03/30 01:26:39;;;;;;;10.00;6.57;;;;;;;10.79;45.24;99404.13;8297371;28;20185;-69
2021/03/30 01:30:44;;;;;;;10.03;6.07;;;;;;;10.74;44.83;99396.47;8297828;28;20237;-69
2021/03/30 01:34:48;;;;;;;9.20;6.20;;;;;;;10.66;45.24;99407.00;8300656;28;20241;-67
2021/03/30 01:38:51;;;;;;;8.13;6.50;;;;;;;10.67;45.43;99400.91;8321435;28;20220;-67
2021/03/30 01:42:53;;;;;;;9.80;6.17;;;;;;;10.60;45.37;99388.97;8312995;28;20628;-67
2021/03/30 01:46:56;;;;;;;11.93;6.43;;;;;;;10.56;45.55;99387.34;8311437;28;20213;-68
2021/03/30 01:50:59;;;;;;;9.60;5.77;;;;;;;10.54;45.13;99384.78;8312483;28;20189;-68
2021/03/30 01:55:03;;;;;;;8.50;5.97;;;;;;;10.40;45.30;99384.25;8301723;28;20216;-67
2021/03/30 01:59:07;;;;;;;9.33;6.33;;;;;;;10.44;45.45;99387.63;8296440;28;20201;-67
2021/03/30 02:03:12;;;;;;;8.63;5.97;;;;;;;10.33;45.51;99386.09;8328033;28;20200;-67
2021/03/30 02:07:15;;;;;;;9.90;5.90;;;;;;;10.18;45.52;99392.41;8328829;28;20216;-67
2021/03/30 02:11:25;;;;;;;14.40;6.03;;;;;;;10.20;45.53;99394.94;8329376;28;20628;-67
2021/03/30 02:15:27;;;;;;;9.30;6.00;;;;;;;10.20;46.04;99399.28;8328802;28;20651;-67
2021/03/30 02:19:35;;;;;;;11.10;5.90;;;;;;;10.11;46.16;99390.84;8328630;28;20201;-69
2021/03/30 02:23:37;;;;;;;13.20;6.07;;;;;;;10.03;46.45;99390.09;8328989;28;20220;-67
2021/03/30 02:27:41;;;;;;;11.10;6.00;;;;;;;10.04;46.15;99397.00;8329437;28;20267;-67
2021/03/30 02:31:43;;;;;;;9.63;6.07;;;;;;;9.97;46.26;99395.41;8334889;28;20204;-68
2021/03/30 02:35:47;;;;;;;8.23;5.67;;;;;;;9.79;46.34;99388.84;8334728;28;20197;-68
2021/03/30 02:39:49;;;;;;;10.17;5.97;;;;;;;9.91;46.19;99390.34;8335020;28;20220;-68
2021/03/30 02:43:52;;;;;;;10.60;6.50;;;;;;;10.04;46.31;99380.63;8335266;28;20208;-68
2021/03/30 02:47:56;;;;;;;8.10;5.93;;;;;;;9.95;46.37;99381.66;8335039;28;20220;-68
2021/03/30 02:52:00;;;;;;;9.53;6.10;;;;;;;9.84;46.42;99388.75;8334497;28;20235;-68
2021/03/30 02:56:04;;;;;;;8.97;6.03;;;;;;;9.86;46.37;99390.47;8334390;28;20238;-68
2021/03/30 03:00:09;;;;;;;10.17;6.00;;;;;;;9.84;47.02;99394.78;8334143;28;20503;-69
2021/03/30 03:04:11;;;;;;;8.93;6.17;;;;;;;9.83;47.10;99387.06;8334180;28;20208;-68
2021/03/30 03:08:15;;;;;;;11.30;6.63;;;;;;;9.82;46.77;99382.75;8334360;28;20208;-68
2021/03/30 03:12:18;;;;;;;13.70;6.50;;;;;;;9.72;46.49;99380.34;8334071;28;20695;-68
2021/03/30 03:16:20;;;;;;;9.80;5.87;;;;;;;9.71;46.78;99380.38;8333599;28;20617;-68
2021/03/30 03:20:24;;;;;;;12.97;6.63;;;;;;;9.66;47.01;99384.78;8333224;28;20231;-67
2021/03/30 03:24:26;;;;;;;10.77;6.13;;;;;;;9.59;46.94;99384.91;8332892;28;20200;-68
2021/03/30 03:28:28;;;;;;;11.77;6.90;;;;;;;9.67;47.27;99386.47;8333499;28;20228;-68
2021/03/30 03:32:31;;;;;;;13.60;7.87;;;;;;;9.56;47.17;99382.34;8333405;28;20220;-68
2021/03/30 03:36:38;;;;;;;10.13;6.50;;;;;;;9.63;47.24;99380.50;8333006;28;20202;-68
2021/03/30 03:40:41;;;;;;;16.50;7.73;;;;;;;9.62;47.35;99388.31;8331836;28;20251;-67
2021/03/30 03:44:43;;;;;;;12.60;7.67;;;;;;;9.67;47.35;99383.88;8332748;28;20683;-68
2021/03/30 03:48:45;;;;;;;15.17;8.17;;;;;;;9.55;47.06;99382.38;8332985;28;20201;-68
2021/03/30 03:52:54;;;;;;;11.07;7.43;;;;;;;9.44;47.65;99387.72;8332828;28;20797;-68
2021/03/30 03:57:00;;;;;;;12.50;7.13;;;;;;;9.44;47.33;99387.72;8332715;28;20185;-68
2021/03/30 04:01:03;;;;;;;10.20;7.17;;;;;;;9.53;47.65;99389.31;8332240;28;20208;-68
2021/03/30 04:05:11;;;;;;;12.07;7.83;;;;;;;9.48;47.55;99391.13;8332258;28;20212;-68
2021/03/30 04:09:16;;;;;;;15.57;8.00;;;;;;;9.47;47.57;99395.44;8332184;28;20185;-68
2021/03/30 04:13:20;;;;;;;13.40;7.60;;;;;;;9.41;47.89;99395.56;8332100;28;20259;-68
2021/03/30 04:17:22;;;;;;;12.17;7.80;;;;;;;9.38;47.56;99396.44;8332038;28;20216;-68
2021/03/30 04:21:29;;;;;;;13.37;7.60;;;;;;;9.35;48.06;99401.69;8331939;28;20219;-68
2021/03/30 04:25:32;;;;;;;10.80;6.83;;;;;;;9.25;47.02;99405.28;8331938;28;20192;-69
2021/03/30 04:29:34;;;;;;;9.00;6.23;;;;;;;9.18;46.91;99404.53;8331993;28;20244;-68
2021/03/30 04:33:36;;;;;;;11.80;7.40;;;;;;;9.04;47.28;99398.72;8331350;28;20234;-68
2021/03/30 04:37:38;;;;;;;15.40;6.80;;;;;;;9.08;47.37;99407.28;8331123;28;20220;-68
2021/03/30 04:41:40;;;;;;;11.80;7.17;;;;;;;9.04;47.27;99413.38;8330459;28;20201;-68
2021/03/30 04:45:43;;;;;;;10.37;6.83;;;;;;;9.03;47.58;99420.28;8331227;28;20204;-68
2021/03/30 04:49:45;;;;;;;9.37;6.67;;;;;;;9.03;47.14;99428.03;8331069;28;20215;-67
2021/03/30 04:53:47;;;;;;;8.40;6.73;;;;;;;9.01;47.45;99422.03;8331123;28;20231;-68
2021/03/30 04:57:48;;;;;;;15.00;7.20;;;;;;;8.99;47.52;99432.38;8331124;28;20200;-68
2021/03/30 05:01:51;;;;;;;17.87;7.80;;;;;;;8.90;48.27;99434.25;8330759;28;20280;-68
2021/03/30 05:05:53;;;;;;;10.37;6.77;;;;;;;8.95;47.95;99435.91;8329434;28;20256;-68
2021/03/30 05:09:55;;;;;;;13.10;7.20;;;;;;;8.94;47.74;99436.75;8328004;28;20555;-68
2021/03/30 05:13:57;;;;;;;14.27;7.53;;;;;;;8.93;47.96;99440.22;8328573;28;20232;-68
2021/03/30 05:17:59;;;;;;;16.43;7.13;;;;;;;8.95;48.10;99440.22;8327197;28;20197;-68
2021/03/30 05:22:01;;;;;;;11.73;6.97;;;;;;;8.97;47.52;99446.22;8327177;28;20211;-68
2021/03/30 05:26:03;;;;;;;14.27;7.30;;;;;;;9.20;47.00;99451.88;8327385;28;20204;-68
2021/03/30 05:30:07;;;;;;;14.87;6.77;;;;;;;9.50;45.90;99457.47;8327350;28;20504;-68
2021/03/30 05:34:10;;;;;;;20.97;7.87;;;;;;;9.56;46.12;99454.78;8329763;28;20231;-68
2021/03/30 05:38:12;;;;;;;14.73;7.50;;;;;;;9.91;45.90;99458.47;8329881;28;20227;-68
2021/03/30 05:42:15;;;;;;;14.60;7.33;;;;;;;10.11;45.14;99460.72;8330279;28;20211;-68
2021/03/30 05:46:17;;;;;;;13.13;7.60;;;;;;;10.52;44.31;99459.09;8330107;28;20628;-68
2021/03/30 05:50:22;;;;;;;15.83;8.07;;;;;;;10.78;43.99;99462.03;8329335;28;20215;-68
2021/03/30 05:54:24;;;;;;;15.93;8.27;;;;;;;11.05;43.54;99456.22;8329685;28;20228;-68
2021/03/30 05:58:39;;;;;;;16.00;7.80;;;;;;;11.39;42.63;99458.03;8329823;28;20184;-68
2021/03/30 06:02:43;;;;;;;13.00;8.30;;;;;;;11.19;43.59;99463.69;8328600;28;20520;-67
2021/03/30 06:06:46;;;;;;;15.47;8.50;;;;;;;11.43;42.91;99475.25;8335539;28;20215;-67
2021/03/30 06:10:48;;;;;;;21.20;8.00;;;;;;;11.67;42.40;99473.81;8334909;28;20208;-68
2021/03/30 06:14:50;;;;;;;33.53;9.57;;;;;;;11.73;42.40;99481.44;8335693;28;20238;-68
2021/03/30 06:19:07;;;;;;;15.63;8.23;;;;;;;11.51;43.08;99485.44;8336611;28;20196;-68
2021/03/30 06:23:10;;;;;;;13.67;8.57;;;;;;;11.08;43.75;99487.28;8336031;28;20184;-68
2021/03/30 06:27:24;;;;;;;16.93;8.23;;;;;;;11.81;42.47;99483.84;8335087;28;20236;-67
2021/03/30 06:31:26;;;;;;;15.20;8.40;;;;;;;12.05;41.98;99486.72;8331809;28;20185;-68
2021/03/30 06:35:30;;;;;;;23.30;8.33;;;;;;;12.52;41.30;99488.03;8305955;28;20229;-68
2021/03/30 06:39:37;;;;;;;15.77;9.60;;;;;;;12.59;41.16;99487.88;8303924;28;20217;-69
2021/03/30 06:48:01;;;;;;;14.37;9.07;;;;;;;12.77;41.11;99497.72;8316723;28;20181;-68
2021/03/30 06:52:13;;;;;;;17.50;9.30;;;;;;;11.93;42.73;99495.69;8331137;28;20533;-68
2021/03/30 06:56:16;;;;;;;21.33;9.30;;;;;;;12.64;41.54;99502.44;8325309;28;20212;-68
2021/03/30 07:00:20;;;;;;;14.07;8.40;;;;;;;12.83;40.43;99494.09;8327799;28;20239;-68
2021/03/30 07:04:23;;;;;;;19.10;7.87;;;;;;;13.18;40.28;99489.59;8335372;28;20208;-68
2021/03/30 07:08:25;;;;;;;15.20;7.60;;;;;;;13.58;39.67;99486.63;8334065;28;20303;-68
2021/03/30 07:12:28;;;;;;;15.93;7.70;;;;;;;13.83;38.58;99491.88;8333904;28;20562;-68
2021/03/30 07:16:33;;;;;;;17.33;7.63;;;;;;;14.38;38.19;99496.09;8333186;28;20647;-68
2021/03/30 07:20:39;;;;;;;14.17;7.40;;;;;;;14.39;38.87;99490.81;8334487;28;20188;-69
2021/03/30 07:24:43;;;;;;;16.57;7.53;;;;;;;15.08;37.56;99490.06;8333996;28;20216;-68
2021/03/30 07:28:47;;;;;;;16.53;7.97;;;;;;;15.36;37.28;99484.59;8334380;28;20232;-68
2021/03/30 07:33:03;;;;;;;17.57;7.73;;;;;;;15.62;36.27;99491.38;8332728;28;20279;-68
2021/03/30 07:37:06;;;;;;;14.57;7.83;;;;;;;15.67;35.97;99495.56;8332778;28;20200;-68
2021/03/30 07:41:08;;;;;;;13.60;7.10;;;;;;;16.20;35.41;99490.75;8333455;28;20211;-68
2021/03/30 07:45:13;;;;;;;14.80;6.97;;;;;;;16.33;35.58;99496.25;8334014;28;20196;-68
2021/03/30 07:49:15;;;;;;;11.30;7.30;;;;;;;15.62;36.40;99493.97;8333524;28;20254;-68
2021/03/30 07:53:39;;;;;;;12.47;7.10;;;;;;;16.94;34.20;99492.69;8333190;28;20220;-68
2021/03/30 07:58:02;;;;;;;12.30;6.77;;;;;;;16.78;34.11;99499.53;8332737;28;20203;-68
2021/03/30 08:02:05;;;;;;;12.83;6.73;;;;;;;17.35;33.31;99500.38;8333619;28;20585;-68
2021/03/30 08:06:17;;;;;;;15.73;7.57;;;;;;;17.77;32.86;99495.75;8332828;28;20211;-68
2021/03/30 08:10:32;;;;;;;15.90;7.20;;;;;;;17.96;32.96;99496.53;8332448;28;20186;-68
2021/03/30 08:14:51;;;;;;;16.73;7.30;;;;;;;18.43;32.36;99500.28;8332905;28;20585;-68
2021/03/30 08:18:54;;;;;;;19.87;7.90;;;;;;;18.83;32.08;99505.22;8332243;28;20200;-68
2021/03/30 08:23:11;;;;;;;16.93;7.70;;;;;;;19.26;30.69;99490.56;8332539;28;20612;-68
2021/03/30 08:27:38;;;;;;;18.60;7.70;;;;;;;19.47;30.05;99496.41;8331731;28;20534;-69
2021/03/30 08:31:42;;;;;;;16.37;8.10;;;;;;;19.75;29.11;99502.75;8332444;28;20181;-69
2021/03/30 08:35:46;;;;;;;19.60;8.60;;;;;;;20.08;28.81;99507.78;8331518;28;20220;-69
2021/03/30 08:39:48;;;;;;;17.60;7.80;;;;;;;20.60;28.96;99508.25;8331916;28;20216;-68
2021/03/30 08:44:11;;;;;;;13.97;9.33;;;;;;;20.09;28.05;99504.25;8331950;28;20246;-69
2021/03/30 08:48:14;;;;;;;14.60;8.60;;;;;;;20.74;28.37;99505.66;8331421;28;20184;-68
2021/03/30 08:52:18;;;;;;;17.73;8.80;;;;;;;21.11;27.05;99500.69;8331527;28;20212;-68
2021/03/30 08:56:26;;;;;;;24.53;8.63;;;;;;;21.18;27.90;99506.44;8331787;28;20220;-68
2021/03/30 09:00:29;;;;;;;13.13;8.47;;;;;;;21.16;26.77;99505.69;8331361;28;20197;-68
2021/03/30 09:04:33;;;;;;;15.87;7.83;;;;;;;21.33;27.71;99507.25;8330967;28;20254;-68
2021/03/30 09:08:38;;;;;;;18.70;8.37;;;;;;;21.63;27.07;99502.63;8330920;28;20620;-68
2021/03/30 09:12:40;;;;;;;14.07;8.47;;;;;;;22.19;26.41;99505.06;8330988;28;20308;-69
2021/03/30 09:16:43;;;;;;;23.67;9.00;;;;;;;21.73;26.34;99508.16;8330803;28;20317;-68
2021/03/30 09:20:44;;;;;;;14.90;8.73;;;;;;;22.27;26.10;99506.38;8330452;28;20192;-68
2021/03/30 09:25:05;;;;;;;12.97;8.30;;;;;;;22.42;26.03;99497.41;8331043;28;20197;-68
2021/03/30 09:29:08;;;;;;;12.17;7.83;;;;;;;23.05;25.42;99493.00;8330589;28;20234;-69
2021/03/30 09:33:10;;;;;;;16.60;9.23;;;;;;;22.65;24.97;99496.63;8328628;28;20218;-69
2021/03/30 09:37:12;;;;;;;14.73;8.57;;;;;;;23.07;24.52;99487.59;8330020;28;20205;-68
2021/03/30 09:41:15;;;;;;;17.90;8.70;;;;;;;23.42;24.55;99492.97;8329761;28;20215;-68
2021/03/30 09:45:21;;;;;;;21.93;8.80;;;;;;;23.73;24.32;99488.06;8329576;28;20207;-69
2021/03/30 09:49:24;;;;;;;21.17;8.90;;;;;;;23.90;23.87;99485.00;8330396;28;20201;-69
2021/03/30 09:53:39;;;;;;;19.00;8.00;;;;;;;23.96;23.30;99481.91;8329727;28;20235;-69
2021/03/30 09:57:42;;;;;;;15.40;7.90;;;;;;;24.03;23.07;99478.78;8330211;28;20187;-69
2021/03/30 10:01:45;;;;;;;12.73;8.30;;;;;;;24.21;23.11;99480.03;8330146;28;20264;-69
2021/03/30 10:05:46;;;;;;;18.90;9.70;;;;;;;24.34;22.49;99478.13;8330025;28;20247;-69
2021/03/30 10:09:56;;;;;;;14.33;8.40;;;;;;;24.65;22.47;99459.84;8329387;28;20214;-69
2021/03/30 10:14:20;;;;;;;15.83;8.00;;;;;;;24.74;22.20;99463.59;8329810;28;20514;-71
2021/03/30 10:18:25;;;;;;;13.90;8.53;;;;;;;24.90;21.10;99455.25;8330098;28;20188;-69
2021/03/30 10:22:34;;;;;;;15.13;8.83;;;;;;;24.47;20.65;99453.34;8330111;28;20191;-69
2021/03/30 10:26:36;;;;;;;14.03;7.77;;;;;;;24.94;20.82;99448.72;8329373;28;20181;-69
2021/03/30 10:30:42;;;;;;;18.63;7.50;;;;;;;25.08;20.94;99445.00;8317948;28;20229;-69
2021/03/30 10:34:44;;;;;;;16.07;8.13;;;;;;;24.91;20.19;99444.53;8312557;28;20271;-69
2021/03/30 10:39:01;;;;;;;13.40;7.73;;;;;;;25.43;20.36;99439.47;8315496;28;20251;-69
2021/03/30 10:43:20;;;;;;;16.83;6.97;;;;;;;25.30;20.56;99437.00;8313136;28;20196;-69
2021/03/30 10:47:25;;;;;;;14.30;6.47;;;;;;;25.58;21.35;99439.16;8294983;28;20299;-69
2021/03/30 10:51:27;;;;;;;11.30;6.00;;;;;;;25.58;19.71;99431.22;8299528;28;20220;-69
2021/03/30 10:55:29;;;;;;;11.67;6.03;;;;;;;25.56;19.65;99433.97;8302198;28;20220;-69
2021/03/30 10:59:31;;;;;;;10.97;6.17;;;;;;;25.56;18.40;99426.03;8303296;28;20216;-69
2021/03/30 11:03:34;;;;;;;20.70;6.57;;;;;;;25.28;19.05;99423.00;8334674;28;20896;-68
2021/03/30 11:07:37;;;;;;;12.57;6.90;;;;;;;24.75;18.62;99417.56;8334689;28;20207;-69
2021/03/30 11:11:40;;;;;;;12.43;7.07;;;;;;;25.06;18.88;99407.16;8334068;28;20200;-68
2021/03/30 11:16:23;;;;;;;13.60;8.23;;;;;;;24.47;18.23;99406.53;8327784;28;20224;-69
2021/03/30 11:20:26;;;;;;;11.27;7.03;;;;;;;25.23;19.36;99397.88;8314322;28;20201;-69
2021/03/30 11:24:30;;;;;;;10.50;7.50;;;;;;;25.10;18.52;99395.34;8321260;28;20204;-69
2021/03/30 11:28:37;;;;;;;14.53;8.83;;;;;;;24.84;17.68;99392.16;8327959;28;20241;-71
2021/03/30 11:32:43;;;;;;;12.30;8.20;;;;;;;25.10;17.77;99388.22;8333389;28;20192;-69
2021/03/30 11:36:48;;;;;;;16.07;7.73;;;;;;;25.08;17.85;99382.22;8333535;28;20560;-72
2021/03/30 11:40:49;;;;;;;10.70;7.17;;;;;;;25.12;17.20;99373.03;8333474;28;20667;-73
2021/03/30 11:44:51;;;;;;;8.30;6.03;;;;;;;25.17;17.21;99368.22;8330888;28;20667;-71
2021/03/30 11:48:54;;;;;;;8.63;4.60;;;;;;;25.55;16.63;99369.50;8325391;28;20215;-70
2021/03/30 11:52:57;;;;;;;12.37;6.20;;;;;;;24.36;16.76;99366.81;8328170;28;20521;-71
2021/03/30 11:56:59;;;;;;;16.17;7.43;;;;;;;24.91;16.99;99354.44;8333418;28;20192;-71
2021/03/30 12:01:01;;;;;;;8.95;6.15;;;;;;;24.97;15.93;99361.06;8331051;28;20407;-70
2021/03/30 12:05:04;;;;;;;13.57;7.70;;;;;;;25.19;16.33;99354.84;8333861;28;20196;-70
2021/03/30 12:09:07;;;;;;;15.23;7.20;;;;;;;25.29;17.09;99350.47;8332994;28;20211;-71
2021/03/30 12:13:09;;;;;;;9.10;6.60;;;;;;;25.78;16.73;99348.13;8332610;28;20197;-70
2021/03/30 12:17:11;;;;;;;13.07;6.77;;;;;;;25.93;16.57;99344.19;8334235;28;20519;-71
2021/03/30 12:21:13;;;;;;;12.07;5.97;;;;;;;25.99;17.13;99332.22;8331036;28;20232;-70
2021/03/30 12:25:16;;;;;;;11.63;7.53;;;;;;;25.42;16.29;99331.72;8331013;28;20588;-70
2021/03/30 12:29:18;;;;;;;10.27;6.70;;;;;;;25.46;16.30;99327.84;8318776;28;20223;-71
2021/03/30 12:33:20;;;;;;;12.93;7.40;;;;;;;24.89;16.44;99326.41;8302702;28;20255;-70
2021/03/30 12:37:23;;;;;;;9.57;6.67;;;;;;;25.54;16.71;99317.41;8297275;28;20308;-71
2021/03/30 12:41:26;;;;;;;8.73;6.03;;;;;;;25.87;16.45;99318.13;8296355;28;20205;-72
2021/03/30 12:45:27;;;;;;;10.37;6.63;;;;;;;25.93;16.49;99308.84;8296514;28;20205;-70
2021/03/30 12:49:29;;;;;;;15.10;7.00;;;;;;;25.87;15.60;99312.81;8297445;28;20193;-70
2021/03/30 12:53:33;;;;;;;10.50;5.87;;;;;;;26.11;16.51;99307.22;8304606;28;20216;-70
2021/03/30 12:57:35;;;;;;;13.07;5.67;;;;;;;26.34;17.69;99302.53;8300427;28;20205;-65
2021/03/30 13:01:37;;;;;;;9.53;5.37;;;;;;;26.26;17.20;99297.09;8316646;28;20192;-66
2021/03/30 13:05:39;;;;;;;12.93;6.33;;;;;;;25.77;15.01;99290.72;8328251;28;20206;-65
2021/03/30 13:09:41;;;;;;;8.77;5.33;;;;;;;26.07;15.68;99289.06;8314233;28;20225;-65
2021/03/30 13:13:44;;;;;;;16.20;5.50;;;;;;;25.98;15.38;99281.91;8313805;28;20216;-66
2021/03/30 13:17:46;;;;;;;8.80;5.33;;;;;;;26.05;15.09;99275.09;8313328;28;20200;-65
2021/03/30 13:21:48;;;;;;;9.00;4.90;;;;;;;26.06;15.94;99274.09;8302828;28;20228;-65
2021/03/30 13:25:50;;;;;;;13.07;6.23;;;;;;;26.11;15.13;99267.41;8297197;28;20208;-66
2021/03/30 13:30:14;;;;;;;14.70;6.30;;;;;;;25.99;15.37;99263.19;8297536;28;20233;-65
2021/03/30 13:34:16;;;;;;;8.47;6.20;;;;;;;25.83;15.76;99263.66;8297802;28;20279;-66
2021/03/30 13:38:24;;;;;;;13.40;6.03;;;;;;;26.21;17.06;99259.47;8300330;28;20270;-64
2021/03/30 13:42:26;;;;;;;10.70;6.17;;;;;;;26.18;17.26;99251.81;8299906;28;20271;-66
2021/03/30 13:46:30;;;;;;;10.63;5.70;;;;;;;26.14;16.99;99235.31;8300136;28;20197;-65
2021/03/30 13:50:34;;;;;;;9.00;5.70;;;;;;;26.18;17.31;99235.88;8312207;28;20239;-65
2021/03/30 13:54:36;;;;;;;9.93;5.73;;;;;;;26.16;17.06;99240.47;8299652;28;20221;-65
2021/03/30 13:58:38;;;;;;;13.27;5.77;;;;;;;26.21;16.94;99238.22;8297658;28;20810;-70
2021/03/30 14:02:41;;;;;;;11.53;5.53;;;;;;;26.23;17.00;99230.13;8296843;28;20199;-70
2021/03/30 14:06:43;;;;;;;11.00;6.17;;;;;;;26.17;17.01;99223.56;8296960;28;20214;-70
2021/03/30 14:10:45;;;;;;;12.30;5.30;;;;;;;26.07;17.08;99217.41;8297855;28;20671;-70
2021/03/30 14:14:51;;;;;;;8.77;5.60;;;;;;;26.07;17.08;99217.41;8316331;28;20217;-71
2021/03/30 14:18:59;;;;;;;9.10;5.27;;;;;;;26.05;16.91;99211.41;8323602;28;20557;-70
2021/03/30 14:23:15;;;;;;;10.67;5.63;;;;;;;25.96;15.81;99204.25;8320437;28;20186;-71
2021/03/30 14:27:17;;;;;;;10.27;5.07;;;;;;;25.77;15.66;99203.19;8325092;28;20232;-71
2021/03/30 14:31:39;;;;;;;9.23;5.37;;;;;;;25.76;16.33;99198.88;8335215;28;20271;-70
2021/03/30 14:35:43;;;;;;;8.25;5.78;;;;;;;26.06;16.12;99202.44;8332791;28;20903;-71
2021/03/30 14:39:47;;;;;;;8.27;4.80;;;;;;;25.75;15.24;99192.69;8302600;28;20538;-71
2021/03/30 14:43:57;;;;;;;8.33;4.30;;;;;;;25.66;14.92;99182.06;8303310;28;20544;-70
2021/03/30 14:53:04;;;;;;;7.60;3.77;;;;;;;25.57;15.60;99173.13;8335484;28;20213;-71
2021/03/30 14:57:10;;;;;;;14.23;4.60;;;;;;;25.47;15.12;99172.22;8335500;28;20205;-71
2021/03/30 15:01:27;;;;;;;6.33;4.23;;;;;;;25.10;14.38;99156.81;8334147;28;20275;-71
2021/03/30 15:05:29;;;;;;;6.83;3.63;;;;;;;24.95;14.37;99149.19;8334493;28;20189;-71
2021/03/30 15:09:32;;;;;;;13.90;3.80;;;;;;;24.73;15.32;99146.69;8334613;28;20668;-71
2021/03/30 15:13:34;;;;;;;9.27;3.60;;;;;;;24.74;15.56;99151.03;8333805;28;20208;-71
2021/03/30 15:17:35;;;;;;;8.60;3.33;;;;;;;24.81;15.65;99146.03;8332929;28;20211;-71
2021/03/30 15:21:38;;;;;;;4.30;2.93;;;;;;;24.74;14.68;99138.63;8334309;28;20223;-70
2021/03/30 15:25:41;;;;;;;4.17;3.27;;;;;;;24.69;14.54;99129.38;8334106;28;20219;-70
2021/03/30 15:29:50;;;;;;;4.07;2.87;;;;;;;24.51;13.34;99134.41;8335082;28;20571;-69
2021/03/30 15:33:52;;;;;;;6.40;2.73;;;;;;;24.69;14.57;99132.03;8335260;28;20211;-70
2021/03/30 15:37:54;;;;;;;4.03;2.57;;;;;;;24.57;14.20;99124.16;8331853;28;20760;-70
2021/03/30 15:41:57;;;;;;;5.17;2.70;;;;;;;24.58;15.32;99122.38;8331191;28;20326;-70
2021/03/30 15:46:06;;;;;;;9.23;3.30;;;;;;;24.46;15.74;99118.06;8331487;28;20283;-68
2021/03/30 15:50:10;;;;;;;5.33;2.80;;;;;;;24.36;16.49;99110.03;8329714;28;20188;-70
2021/03/30 15:54:11;;;;;;;6.43;3.17;;;;;;;24.19;16.01;99108.78;8331371;28;20227;-69
2021/03/30 15:58:14;;;;;;;7.23;2.20;;;;;;;24.08;16.48;99106.19;8330200;28;20196;-69
2021/03/30 16:02:17;;;;;;;9.83;2.90;;;;;;;23.94;17.37;99102.88;8331062;28;20614;-72
2021/03/30 16:06:18;;;;;;;7.53;2.50;;;;;;;23.71;17.18;99104.72;8300731;28;20219;-69
2021/03/30 16:10:22;;;;;;;9.07;4.37;;;;;;;23.55;18.99;99096.31;8298503;28;20224;-68
2021/03/30 16:14:25;;;;;;;7.13;4.37;;;;;;;23.38;18.96;99093.25;8296705;28;20266;-68
2021/03/30 16:18:27;;;;;;;7.40;3.80;;;;;;;23.23;19.79;99091.81;8300220;28;20640;-68
2021/03/30 16:22:29;;;;;;;13.60;4.60;;;;;;;23.12;19.71;99094.47;8313629;28;20196;-69
2021/03/30 16:26:31;;;;;;;12.37;4.40;;;;;;;23.06;20.70;99092.31;8303019;28;20250;-67
2021/03/30 16:30:34;;;;;;;8.57;3.87;;;;;;;22.93;20.62;99097.66;8330610;28;20241;-67
2021/03/30 16:34:37;;;;;;;8.07;3.93;;;;;;;22.75;20.61;99097.25;8325036;28;20307;-65
2021/03/30 16:38:40;;;;;;;7.50;4.13;;;;;;;22.59;20.20;99092.31;8310918;28;20262;-68
2021/03/30 16:42:42;;;;;;;12.63;4.40;;;;;;;22.48;21.64;99085.22;8332242;28;20210;-70
2021/03/30 16:46:45;;;;;;;8.80;3.20;;;;;;;22.42;22.37;99089.16;8328025;28;20258;-68
2021/03/30 16:50:48;;;;;;;10.97;3.30;;;;;;;22.28;22.04;99091.16;8326340;28;20224;-68
2021/03/30 16:54:49;;;;;;;6.90;3.07;;;;;;;22.18;22.56;99085.69;8307788;28;20220;-69
2021/03/30 16:58:51;;;;;;;11.00;3.43;;;;;;;22.06;22.82;99084.81;8322166;28;20243;-69
2021/03/30 17:02:54;;;;;;;11.07;3.27;;;;;;;21.97;23.68;99080.19;8303631;28;20606;-68
2021/03/30 17:06:56;;;;;;;6.17;3.23;;;;;;;21.84;22.80;99083.75;8324102;28;20272;-68
2021/03/30 17:10:58;;;;;;;7.90;3.27;;;;;;;21.74;22.91;99079.25;8320627;28;20215;-70
2021/03/30 17:15:00;;;;;;;9.40;3.67;;;;;;;21.63;23.97;99077.41;8330207;28;20282;-70
2021/03/30 17:19:03;;;;;;;10.23;3.33;;;;;;;21.51;24.96;99094.09;8329157;28;20196;-69
2021/03/30 17:23:05;;;;;;;8.23;3.07;;;;;;;21.41;24.40;99089.44;8319300;28;20214;-70
2021/03/30 17:27:07;;;;;;;8.73;3.27;;;;;;;21.24;25.70;99088.00;8314172;28;20619;-69
2021/03/30 17:31:09;;;;;;;8.53;2.87;;;;;;;21.14;25.37;99081.72;8322590;28;20247;-69
2021/03/30 17:35:13;;;;;;;6.53;3.00;;;;;;;20.99;26.00;99073.09;8329389;28;20230;-70
2021/03/30 17:39:15;;;;;;;12.77;3.37;;;;;;;20.87;26.18;99081.84;8329303;28;20216;-71
2021/03/30 17:43:17;;;;;;;7.73;3.20;;;;;;;20.78;26.46;99079.84;8324415;28;20610;-70
2021/03/30 17:47:19;;;;;;;9.70;3.17;;;;;;;20.63;26.43;99084.38;8322891;28;20207;-70
2021/03/30 17:51:24;;;;;;;9.00;3.57;;;;;;;20.47;27.11;99074.03;8301667;28;20205;-69
2021/03/30 17:55:28;;;;;;;31.37;6.47;;;;;;;20.40;27.99;99075.38;8296228;28;20232;-69
2021/03/30 17:59:30;;;;;;;37.57;25.70;;;;;;;20.19;27.33;99077.66;8297404;28;20205;-71
2021/03/30 18:03:32;;;;;;;43.40;27.73;;;;;;;20.02;27.53;99076.97;8329175;28;20201;-71
2021/03/30 18:07:35;;;;;;;22.07;12.23;;;;;;;19.87;28.28;99080.59;8328705;28;20197;-71
2021/03/30 18:11:37;;;;;;;17.13;10.17;;;;;;;19.75;28.17;99073.53;8328214;28;20309;-71
2021/03/30 18:15:41;;;;;;;15.03;8.67;;;;;;;19.63;28.89;99075.97;8328606;28;20588;-70
2021/03/30 18:19:44;;;;;;;13.43;7.43;;;;;;;19.47;29.42;99078.69;8327845;28;20245;-71
2021/03/30 18:23:47;;;;;;;9.37;3.87;;;;;;;19.36;29.52;99075.06;8328510;28;20207;-71
2021/03/30 18:27:49;;;;;;;7.73;3.27;;;;;;;19.23;30.33;99075.84;8325400;28;20282;-71
2021/03/30 18:31:50;;;;;;;7.90;3.77;;;;;;;19.10;31.16;99080.19;8312957;28;20224;-72
2021/03/30 18:35:54;;;;;;;11.47;4.40;;;;;;;18.93;31.06;99074.16;8329054;28;20586;-72
2021/03/30 18:39:57;;;;;;;7.53;5.57;;;;;;;18.82;31.61;99066.09;8328715;28;20220;-72
2021/03/30 18:43:59;;;;;;;12.23;6.80;;;;;;;18.71;31.93;99066.72;8328073;28;20200;-72
2021/03/30 18:48:01;;;;;;;17.07;11.13;;;;;;;18.63;31.86;99071.59;8322014;28;20667;-72
2021/03/30 18:52:04;;;;;;;19.43;12.63;;;;;;;18.53;32.02;99071.28;8300557;28;20572;-72
2021/03/30 18:56:07;;;;;;;16.33;13.07;;;;;;;18.40;32.26;99077.38;8298858;28;20229;-70
2021/03/30 19:00:20;;;;;;;16.33;10.77;;;;;;;18.28;33.01;99073.69;8295628;28;20186;-70
2021/03/30 19:04:22;;;;;;;15.80;9.80;;;;;;;18.14;33.29;99070.09;8295460;28;20190;-71
2021/03/30 19:08:26;;;;;;;15.10;8.63;;;;;;;18.08;33.62;99075.66;8294985;28;20211;-72
2021/03/30 19:12:29;;;;;;;12.87;7.63;;;;;;;17.98;33.44;99074.50;8298163;28;20247;-71